createdAt,value
2018-03-16T00:01:27.702Z,5.70
2018-03-16T00:03:55.191Z,5.70
2018-03-16T00:06:22.669Z,5.60
2018-03-16T00:08:50.170Z,5.70
2018-03-16T00:11:17.639Z,5.70
2018-03-16T00:13:45.123Z,5.70
2018-03-16T00:16:12.591Z,5.70
2018-03-16T00:18:40.076Z,5.60
2018-03-16T00:21:07.574Z,5.60
2018-03-16T00:23:35.051Z,5.60
2018-03-16T00:26:03.326Z,5.50
2018-03-16T00:28:31.568Z,5.40
2018-03-16T00:30:59.059Z,5.40
2018-03-16T00:33:27.295Z,5.40
2018-03-16T00:35:54.762Z,5.40
2018-03-16T00:38:22.247Z,5.40
2018-03-16T00:40:50.491Z,5.10
2018-03-16T00:43:18.743Z,5.00
2018-03-16T00:45:46.273Z,5.00
2018-03-16T00:48:13.763Z,5.00
2018-03-16T00:50:41.235Z,5.10
2018-03-16T00:53:08.708Z,5.20
2018-03-16T00:55:36.965Z,5.20
2018-03-16T00:58:04.443Z,5.20
2018-03-16T01:00:32.735Z,5.30
2018-03-16T01:03:00.203Z,5.30
2018-03-16T01:05:27.966Z,5.30
2018-03-16T01:07:55.437Z,5.30
2018-03-16T01:10:22.982Z,5.40
2018-03-16T01:12:50.467Z,5.40
2018-03-16T01:15:17.959Z,5.30
2018-03-16T01:17:45.456Z,5.40
2018-03-16T01:20:12.922Z,5.40
2018-03-16T01:22:40.791Z,5.50
2018-03-16T01:25:08.263Z,5.40
2018-03-16T01:27:35.734Z,5.40
2018-03-16T01:30:03.239Z,5.40
2018-03-16T01:32:30.708Z,5.40
2018-03-16T01:34:58.215Z,5.40
2018-03-16T01:37:25.690Z,5.30
2018-03-16T01:39:53.945Z,5.20
2018-03-16T01:42:21.414Z,5.10
2018-03-16T01:44:49.650Z,4.90
2018-03-16T01:47:17.144Z,4.90
2018-03-16T01:49:45.379Z,4.60
2018-03-16T01:52:12.871Z,4.60
2018-03-16T01:54:41.113Z,4.50
2018-03-16T01:57:08.609Z,4.50
2018-03-16T01:59:36.839Z,4.40
2018-03-16T02:02:04.315Z,4.40
2018-03-16T02:04:31.804Z,4.30
2018-03-16T02:06:59.276Z,4.30
2018-03-16T02:09:26.763Z,4.20
2018-03-16T02:11:54.235Z,4.10
2018-03-16T02:14:21.733Z,4.00
2018-03-16T02:16:49.199Z,4.00
2018-03-16T02:19:16.672Z,4.00
2018-03-16T02:21:44.158Z,3.90
2018-03-16T02:24:11.640Z,3.90
2018-03-16T02:26:39.887Z,3.80
2018-03-16T02:29:07.367Z,3.80
2018-03-16T02:31:35.627Z,3.70
2018-03-16T02:34:03.103Z,3.70
2018-03-16T02:36:31.342Z,3.60
2018-03-16T02:38:58.835Z,3.60
2018-03-16T02:41:27.084Z,3.50
2018-03-16T02:43:54.600Z,3.50
2018-03-16T02:46:22.092Z,3.60
2018-03-16T02:48:49.599Z,3.60
2018-03-16T02:51:17.089Z,3.70
2018-03-16T02:53:44.559Z,3.70
2018-03-16T02:56:12.071Z,3.80
2018-03-16T02:58:39.548Z,3.80
2018-03-16T03:01:07.085Z,3.70
2018-03-16T03:03:34.563Z,3.80
2018-03-16T03:06:02.376Z,3.80
2018-03-16T03:08:30.611Z,3.70
2018-03-16T03:10:58.138Z,3.70
2018-03-16T03:13:25.631Z,3.60
2018-03-16T03:15:53.132Z,3.60
2018-03-16T03:18:20.624Z,3.60
2018-03-16T03:20:48.164Z,3.60
2018-03-16T03:23:15.659Z,3.50
2018-03-16T03:25:43.176Z,3.50
2018-03-16T03:28:10.666Z,3.50
2018-03-16T03:30:38.641Z,3.40
2018-03-16T03:33:07.352Z,3.40
2018-03-16T03:35:35.611Z,3.50
2018-03-16T03:38:03.116Z,3.40
2018-03-16T03:40:30.587Z,3.50
2018-03-16T03:42:58.131Z,3.60
2018-03-16T03:45:25.608Z,3.60
2018-03-16T03:47:53.142Z,3.50
2018-03-16T03:50:20.620Z,3.50
2018-03-16T03:52:48.091Z,3.40
2018-03-16T03:55:15.579Z,3.40
2018-03-16T03:57:43.815Z,3.30
2018-03-16T04:00:11.303Z,3.30
2018-03-16T04:02:39.549Z,3.20
2018-03-16T04:05:07.068Z,3.20
2018-03-16T04:07:34.543Z,3.10
2018-03-16T04:10:02.026Z,3.00
2018-03-16T04:12:29.532Z,3.00
2018-03-16T04:14:57.004Z,3.00
2018-03-16T04:17:24.507Z,2.80
2018-03-16T04:19:51.980Z,2.80
2018-03-16T04:22:20.240Z,2.80
2018-03-16T04:24:47.736Z,2.80
2018-03-16T04:27:15.208Z,2.80
2018-03-16T04:29:42.704Z,2.80
2018-03-16T04:32:10.183Z,2.80
2018-03-16T04:34:38.452Z,2.70
2018-03-16T04:37:06.696Z,2.80
2018-03-16T04:39:34.599Z,2.70
2018-03-16T04:42:02.847Z,2.90
2018-03-16T04:44:31.827Z,2.90
2018-03-16T04:47:09.461Z,2.90
2018-03-16T04:49:37.700Z,3.20
2018-03-16T04:52:05.187Z,3.20
2018-03-16T04:54:33.440Z,3.40
2018-03-16T04:57:00.939Z,3.40
2018-03-16T04:59:28.504Z,3.50
2018-03-16T05:01:55.975Z,3.60
2018-03-16T05:04:23.517Z,3.70
2018-03-16T05:06:50.995Z,3.80
2018-03-16T05:09:18.487Z,3.90
2018-03-16T05:11:45.959Z,4.00
2018-03-16T05:14:14.260Z,4.10
2018-03-16T05:16:41.735Z,4.20
2018-03-16T05:19:09.208Z,4.20
2018-03-16T05:21:36.700Z,4.30
2018-03-16T05:24:04.940Z,4.30
2018-03-16T05:26:32.436Z,4.30
2018-03-16T05:29:00.679Z,4.30
2018-03-16T05:31:28.191Z,4.30
2018-03-16T05:33:55.663Z,4.40
2018-03-16T05:36:23.141Z,4.50
2018-03-16T05:38:50.631Z,4.60
2018-03-16T05:41:18.108Z,4.70
2018-03-16T05:43:45.597Z,4.70
2018-03-16T05:46:13.073Z,4.90
2018-03-16T05:48:40.567Z,5.10
2018-03-16T05:51:08.039Z,5.10
2018-03-16T05:53:35.531Z,5.20
2018-03-16T05:56:03.020Z,5.10
2018-03-16T05:58:31.255Z,5.10
2018-03-16T06:00:58.798Z,5.10
2018-03-16T06:03:26.245Z,5.00
2018-03-16T06:05:53.760Z,5.00
2018-03-16T06:08:22.001Z,5.00
2018-03-16T06:10:49.479Z,5.00
2018-03-16T06:13:16.968Z,5.00
2018-03-16T06:15:44.624Z,5.00
2018-03-16T06:18:12.879Z,5.10
2018-03-16T06:20:41.125Z,5.20
2018-03-16T06:23:08.620Z,5.20
2018-03-16T06:25:36.864Z,5.30
2018-03-16T06:28:04.342Z,5.30
2018-03-16T06:30:32.601Z,5.40
2018-03-16T06:33:00.080Z,5.30
2018-03-16T06:35:28.341Z,5.40
2018-03-16T06:37:55.812Z,5.40
2018-03-16T06:40:24.075Z,5.60
2018-03-16T06:42:52.315Z,5.60
2018-03-16T06:45:19.791Z,5.60
2018-03-16T06:47:47.308Z,5.60
2018-03-16T06:50:14.786Z,5.60
2018-03-16T06:52:42.287Z,5.70
2018-03-16T06:55:10.524Z,5.80
2018-03-16T06:57:38.024Z,5.80
2018-03-16T07:00:06.267Z,5.90
2018-03-16T07:02:33.743Z,5.90
2018-03-16T07:05:02.000Z,6.00
2018-03-16T07:07:29.483Z,6.00
2018-03-16T07:09:56.982Z,6.00
2018-03-16T07:12:24.460Z,6.10
2018-03-16T07:14:51.974Z,6.20
2018-03-16T07:17:19.461Z,6.30
2018-03-16T07:19:46.934Z,6.40
2018-03-16T07:22:14.447Z,6.50
2018-03-16T07:24:41.920Z,6.70
2018-03-16T07:27:09.411Z,6.90
2018-03-16T07:29:36.933Z,7.00
2018-03-16T07:32:04.420Z,7.20
2018-03-16T07:34:32.671Z,7.40
2018-03-16T07:37:00.147Z,7.40
2018-03-16T07:39:27.636Z,7.50
2018-03-16T07:41:55.123Z,7.50
2018-03-16T07:44:22.611Z,7.40
2018-03-16T07:46:50.083Z,7.20
2018-03-16T07:49:18.344Z,7.10
2018-03-16T07:51:45.823Z,7.10
2018-03-16T07:54:14.099Z,7.20
2018-03-16T07:56:42.335Z,7.20
2018-03-16T07:59:09.811Z,7.20
2018-03-16T08:01:37.303Z,7.20
2018-03-16T08:04:04.776Z,7.10
2018-03-16T08:06:32.276Z,7.00
2018-03-16T08:08:59.751Z,7.00
2018-03-16T08:11:27.987Z,7.10
2018-03-16T08:13:55.476Z,7.00
2018-03-16T08:16:22.952Z,7.10
2018-03-16T08:18:50.455Z,7.10
2018-03-16T08:21:17.927Z,7.30
2018-03-16T08:23:46.910Z,7.40
2018-03-16T08:26:14.539Z,7.40
2018-03-16T08:28:42.011Z,7.50
2018-03-16T08:31:09.507Z,7.50
2018-03-16T08:33:36.980Z,7.60
2018-03-16T08:36:05.226Z,7.60
2018-03-16T08:38:32.735Z,7.60
2018-03-16T08:41:00.207Z,7.70
2018-03-16T08:43:27.723Z,7.50
2018-03-16T08:45:56.001Z,7.50
2018-03-16T08:48:23.452Z,7.50
2018-03-16T08:50:51.712Z,7.50
2018-03-16T08:53:19.192Z,7.50
2018-03-16T08:55:47.456Z,7.60
2018-03-16T08:58:15.693Z,7.60
2018-03-16T09:00:43.175Z,7.60
2018-03-16T09:03:10.664Z,7.70
2018-03-16T09:05:38.148Z,7.70
2018-03-16T09:08:05.964Z,8.00
2018-03-16T09:10:34.204Z,8.50
2018-03-16T09:13:01.692Z,8.40
2018-03-16T09:15:29.960Z,8.70
2018-03-16T09:17:58.206Z,8.80
2018-03-16T09:20:25.703Z,8.70
2018-03-16T09:22:53.959Z,8.80
2018-03-16T09:25:21.432Z,8.80
2018-03-16T09:27:49.703Z,8.90
2018-03-16T09:30:17.940Z,8.80
2018-03-16T09:32:45.436Z,8.80
2018-03-16T09:35:13.677Z,9.00
2018-03-16T09:37:41.156Z,9.00
2018-03-16T09:40:09.435Z,9.20
2018-03-16T09:42:37.671Z,9.40
2018-03-16T09:45:05.470Z,9.40
2018-03-16T09:47:32.961Z,9.50
2018-03-16T09:50:00.447Z,9.60
2018-03-16T09:52:27.938Z,9.40
2018-03-16T09:55:08.107Z,9.10
2018-03-16T09:57:35.596Z,9.10
2018-03-16T10:00:03.080Z,9.10
2018-03-16T10:02:30.576Z,9.20
2018-03-16T10:04:58.047Z,9.20
2018-03-16T10:07:25.535Z,9.30
2018-03-16T10:09:53.035Z,9.10
2018-03-16T10:12:20.503Z,9.10
2018-03-16T10:14:47.999Z,9.10
2018-03-16T10:17:16.236Z,9.30
2018-03-16T10:19:44.471Z,9.30
2018-03-16T10:22:11.956Z,9.30
2018-03-16T10:24:40.934Z,9.50
2018-03-16T10:27:08.456Z,9.50
2018-03-16T10:29:35.923Z,9.60
2018-03-16T10:32:03.391Z,9.50
2018-03-16T10:34:30.880Z,9.70
2018-03-16T10:36:59.128Z,10.00
2018-03-16T10:39:26.631Z,10.00
2018-03-16T10:41:54.867Z,10.00
2018-03-16T10:44:22.346Z,10.00
2018-03-16T10:46:50.603Z,9.90
2018-03-16T10:49:18.858Z,9.80
2018-03-16T10:51:46.342Z,9.80
2018-03-16T10:54:13.853Z,9.50
2018-03-16T10:56:41.336Z,9.40
2018-03-16T10:59:08.825Z,9.20
2018-03-16T11:01:42.767Z,9.30
2018-03-16T11:04:14.087Z,9.20
2018-03-16T11:06:45.979Z,9.20
2018-03-16T11:09:13.476Z,9.20
2018-03-16T11:11:42.251Z,9.20
2018-03-16T11:14:09.736Z,9.20
2018-03-16T11:16:38.005Z,9.40
2018-03-16T11:19:06.263Z,9.50
2018-03-16T11:21:33.780Z,9.50
2018-03-16T11:24:01.252Z,9.60
2018-03-16T11:26:28.721Z,9.70
2018-03-16T11:28:56.212Z,9.80
2018-03-16T11:31:24.452Z,9.90
2018-03-16T11:33:51.987Z,9.90
2018-03-16T11:36:19.455Z,9.70
2018-03-16T11:38:46.921Z,9.70
2018-03-16T11:41:14.419Z,9.60
2018-03-16T11:43:42.652Z,9.40
2018-03-16T11:46:10.174Z,9.40
2018-03-16T11:48:37.647Z,9.70
2018-03-16T11:51:05.476Z,9.70
2018-03-16T11:53:32.951Z,9.80
2018-03-16T11:56:00.424Z,9.90
2018-03-16T11:58:27.928Z,9.80
2018-03-16T12:00:56.160Z,9.80
2018-03-16T12:03:23.651Z,9.80
2018-03-16T12:05:51.887Z,9.90
2018-03-16T12:08:19.408Z,9.90
2018-03-16T12:10:46.909Z,9.70
2018-03-16T12:13:14.376Z,9.50
2018-03-16T12:15:41.896Z,9.30
2018-03-16T12:18:09.377Z,9.40
2018-03-16T12:20:36.869Z,9.40
2018-03-16T12:23:04.353Z,9.30
2018-03-16T12:25:31.852Z,9.30
2018-03-16T12:27:59.315Z,9.40
2018-03-16T12:30:26.782Z,9.60
2018-03-16T12:32:54.280Z,9.70
2018-03-16T12:35:21.744Z,9.90
2018-03-16T12:37:49.259Z,10.00
2018-03-16T12:40:17.576Z,9.60
2018-03-16T12:42:45.059Z,9.60
2018-03-16T12:45:12.527Z,9.70
2018-03-16T12:47:40.000Z,9.90
2018-03-16T12:50:08.313Z,9.80
2018-03-16T12:52:35.779Z,9.80
2018-03-16T12:55:03.264Z,9.90
2018-03-16T12:57:30.751Z,10.00
2018-03-16T12:59:59.018Z,10.50
2018-03-16T13:02:27.255Z,10.80
2018-03-16T13:04:54.756Z,10.80
2018-03-16T13:07:23.016Z,11.30
2018-03-16T13:09:50.512Z,11.30
2018-03-16T13:12:17.992Z,11.40
2018-03-16T13:14:45.483Z,11.50
2018-03-16T13:17:12.965Z,11.80
2018-03-16T13:19:41.219Z,11.50
2018-03-16T13:22:09.464Z,11.30
2018-03-16T13:24:36.955Z,11.30
2018-03-16T13:27:05.206Z,10.90
2018-03-16T13:29:33.500Z,11.00
2018-03-16T13:32:01.752Z,11.30
2018-03-16T13:34:29.269Z,11.30
2018-03-16T13:36:56.777Z,11.20
2018-03-16T13:39:24.268Z,11.00
2018-03-16T13:41:51.773Z,11.00
2018-03-16T13:44:19.259Z,10.80
2018-03-16T13:46:47.513Z,10.80
2018-03-16T13:49:14.984Z,10.80
2018-03-16T13:51:42.482Z,10.90
2018-03-16T13:54:09.955Z,11.30
2018-03-16T13:56:37.449Z,11.60
2018-03-16T13:59:04.920Z,11.60
2018-03-16T14:01:33.177Z,11.20
2018-03-16T14:04:00.648Z,11.20
2018-03-16T14:06:28.957Z,11.10
2018-03-16T14:08:56.428Z,11.10
2018-03-16T14:11:23.981Z,11.20
2018-03-16T14:13:51.473Z,11.30
2018-03-16T14:16:20.640Z,11.70
2018-03-16T14:18:48.139Z,11.70
2018-03-16T14:21:15.611Z,11.20
2018-03-16T14:23:43.876Z,10.30
2018-03-16T14:26:12.120Z,9.90
2018-03-16T14:28:39.620Z,9.90
2018-03-16T14:31:07.860Z,9.50
2018-03-16T14:33:35.348Z,9.50
2018-03-16T14:36:03.592Z,9.40
2018-03-16T14:38:31.081Z,9.40
2018-03-16T14:40:59.320Z,9.20
2018-03-16T14:43:26.826Z,9.20
2018-03-16T14:45:54.309Z,9.20
2018-03-16T14:48:21.800Z,8.90
2018-03-16T14:50:49.281Z,8.90
2018-03-16T14:53:16.771Z,8.80
2018-03-16T14:55:44.256Z,8.70
2018-03-16T14:58:11.740Z,8.80
2018-03-16T15:00:39.236Z,8.90
2018-03-16T15:03:06.716Z,8.70
2018-03-16T15:05:34.220Z,8.60
2018-03-16T15:08:01.719Z,8.40
2018-03-16T15:10:29.995Z,8.40
2018-03-16T15:12:58.244Z,8.30
2018-03-16T15:15:25.735Z,8.30
2018-03-16T15:17:53.975Z,8.00
2018-03-16T15:20:21.483Z,8.00
2018-03-16T15:22:49.077Z,7.80
2018-03-16T15:25:16.696Z,7.60
2018-03-16T15:27:44.561Z,7.50
2018-03-16T15:30:12.141Z,7.50
2018-03-16T15:32:39.628Z,7.60
2018-03-16T15:35:07.863Z,7.50
2018-03-16T15:37:35.375Z,7.50
2018-03-16T15:40:02.908Z,7.50
2018-03-16T15:42:30.405Z,7.50
2018-03-16T15:44:57.879Z,7.50
2018-03-16T15:47:26.147Z,7.50
2018-03-16T15:49:53.643Z,7.40
2018-03-16T15:52:21.133Z,7.50
2018-03-16T15:54:48.603Z,7.40
2018-03-16T15:57:16.096Z,7.30
2018-03-16T15:59:44.343Z,7.10
2018-03-16T16:02:11.836Z,7.10
2018-03-16T16:04:40.076Z,7.00
2018-03-16T16:07:07.568Z,7.00
2018-03-16T16:09:35.043Z,6.90
2018-03-16T16:12:02.532Z,6.90
2018-03-16T16:14:30.005Z,6.80
2018-03-16T16:16:57.499Z,6.70
2018-03-16T16:19:25.742Z,6.70
2018-03-16T16:21:53.221Z,6.70
2018-03-16T16:24:21.480Z,6.60
2018-03-16T16:26:48.952Z,6.50
2018-03-16T16:29:17.219Z,6.50
2018-03-16T16:31:45.465Z,6.50
2018-03-16T16:34:12.960Z,6.50
2018-03-16T16:36:41.196Z,6.30
2018-03-16T16:39:08.688Z,6.30
2018-03-16T16:41:36.928Z,6.20
2018-03-16T16:44:04.447Z,6.20
2018-03-16T16:46:31.940Z,6.10
2018-03-16T16:48:59.448Z,6.00
2018-03-16T16:51:26.936Z,6.10
2018-03-16T16:53:54.455Z,6.10
2018-03-16T16:56:22.695Z,6.00
2018-03-16T16:58:50.188Z,6.00
2018-03-16T17:01:17.666Z,5.80
2018-03-16T17:03:45.147Z,5.70
2018-03-16T17:06:12.640Z,5.70
2018-03-16T17:08:40.880Z,5.70
2018-03-16T17:11:08.368Z,5.70
2018-03-16T17:13:36.608Z,5.60
2018-03-16T17:16:04.121Z,5.60
2018-03-16T17:18:31.604Z,5.50
2018-03-16T17:20:59.091Z,5.50
2018-03-16T17:23:28.072Z,5.30
2018-03-16T17:25:55.593Z,5.30
2018-03-16T17:28:23.068Z,5.20
2018-03-16T17:30:50.556Z,5.20
2018-03-16T17:33:18.029Z,5.10
2018-03-16T17:35:46.318Z,5.00
2018-03-16T17:38:14.539Z,4.90
2018-03-16T17:40:42.032Z,4.90
2018-03-16T17:43:10.268Z,4.80
2018-03-16T17:45:37.744Z,4.80
2018-03-16T17:48:06.741Z,4.70
2018-03-16T17:50:34.246Z,4.70
2018-03-16T17:53:01.740Z,4.70
2018-03-16T17:55:29.258Z,4.60
2018-03-16T17:57:56.752Z,4.60
2018-03-16T18:00:24.227Z,4.70
2018-03-16T18:02:51.720Z,4.60
2018-03-16T18:05:19.287Z,4.60
2018-03-16T18:07:46.844Z,4.60
2018-03-16T18:10:14.329Z,4.60
2018-03-16T18:12:41.824Z,4.50
2018-03-16T18:15:10.100Z,4.50
2018-03-16T18:17:38.359Z,4.50
2018-03-16T18:20:06.684Z,4.50
2018-03-16T18:22:34.243Z,4.50
2018-03-16T18:25:01.716Z,4.50
2018-03-16T18:27:29.219Z,4.40
2018-03-16T18:29:56.710Z,4.30
2018-03-16T18:32:24.187Z,4.30
2018-03-16T18:34:51.680Z,4.30
2018-03-16T18:37:19.165Z,4.20
2018-03-16T18:39:46.667Z,4.20
2018-03-16T18:42:14.152Z,4.20
2018-03-16T18:44:42.411Z,4.20
2018-03-16T18:47:09.888Z,4.20
2018-03-16T18:49:38.144Z,4.10
2018-03-16T18:52:05.620Z,4.00
2018-03-16T18:54:33.879Z,4.10
2018-03-16T18:57:01.347Z,4.10
2018-03-16T18:59:29.657Z,4.00
2018-03-16T19:01:57.132Z,4.00
2018-03-16T19:04:24.640Z,4.00
2018-03-16T19:06:52.227Z,3.90
2018-03-16T19:09:19.730Z,3.90
2018-03-16T19:11:47.204Z,3.90
2018-03-16T19:14:15.463Z,3.70
2018-03-16T19:16:43.731Z,3.70
2018-03-16T19:19:11.204Z,3.70
2018-03-16T19:21:38.696Z,3.70
2018-03-16T19:24:06.179Z,3.70
2018-03-16T19:26:33.676Z,3.70
2018-03-16T19:29:01.923Z,3.70
2018-03-16T19:31:29.444Z,3.60
2018-03-16T19:33:56.915Z,3.60
2018-03-16T19:36:24.410Z,3.60
2018-03-16T19:38:51.884Z,3.60
2018-03-16T19:41:20.188Z,3.40
2018-03-16T19:43:47.663Z,3.40
2018-03-16T19:46:15.173Z,3.50
2018-03-16T19:48:43.483Z,3.50
2018-03-16T19:51:11.702Z,3.40
2018-03-16T19:53:39.182Z,3.40
2018-03-16T19:56:06.680Z,3.30
2018-03-16T19:58:34.179Z,3.30
2018-03-16T20:01:02.425Z,3.20
2018-03-16T20:03:29.927Z,3.20
2018-03-16T20:05:58.170Z,3.30
2018-03-16T20:08:26.432Z,3.20
2018-03-16T20:10:53.939Z,3.20
2018-03-16T20:13:21.439Z,3.20
2018-03-16T20:15:48.912Z,3.20
2018-03-16T20:18:16.415Z,3.20
2018-03-16T20:20:43.888Z,3.20
2018-03-16T20:23:11.385Z,3.10
2018-03-16T20:25:38.931Z,3.20
2018-03-16T20:28:06.428Z,3.20
2018-03-16T20:30:34.747Z,3.00
2018-03-16T20:33:02.242Z,3.00
2018-03-16T20:35:30.520Z,3.00
2018-03-16T20:37:58.015Z,2.90
2018-03-16T20:40:25.498Z,2.90
2018-03-16T20:42:52.993Z,2.90
2018-03-16T20:45:21.252Z,2.80
2018-03-16T20:47:48.727Z,2.80
2018-03-16T20:50:17.000Z,2.80
2018-03-16T20:52:45.254Z,2.80
2018-03-16T20:55:12.756Z,2.70
2018-03-16T20:57:40.231Z,2.80
2018-03-16T21:00:07.732Z,2.80
2018-03-16T21:02:35.208Z,2.70
2018-03-16T21:05:03.466Z,2.60
2018-03-16T21:07:31.708Z,2.60
2018-03-16T21:09:59.545Z,2.60
2018-03-16T21:12:27.024Z,2.60
2018-03-16T21:14:54.560Z,2.60
2018-03-16T21:17:22.048Z,2.50
2018-03-16T21:19:49.573Z,2.50
2018-03-16T21:22:17.071Z,2.40
2018-03-16T21:24:44.560Z,2.40
2018-03-16T21:27:12.819Z,2.20
2018-03-16T21:29:40.296Z,2.20
2018-03-16T21:32:07.772Z,2.20
2018-03-16T21:34:35.276Z,2.20
2018-03-16T21:37:02.760Z,2.10
2018-03-16T21:39:31.023Z,2.10
2018-03-16T21:41:59.277Z,2.10
2018-03-16T21:44:26.766Z,2.10
2018-03-16T21:46:55.023Z,2.10
2018-03-16T21:49:23.268Z,2.10
2018-03-16T21:51:50.763Z,2.10
2018-03-16T21:54:19.015Z,2.20
2018-03-16T21:56:46.511Z,2.10
2018-03-16T21:59:13.987Z,2.20
2018-03-16T22:01:41.498Z,2.10
2018-03-16T22:04:09.751Z,2.10
2018-03-16T22:06:37.227Z,2.10
2018-03-16T22:09:05.488Z,2.00
2018-03-16T22:11:32.963Z,2.00
2018-03-16T22:14:01.232Z,1.90
2018-03-16T22:16:29.484Z,2.00
2018-03-16T22:18:57.002Z,1.90
2018-03-16T22:21:24.505Z,2.00
2018-03-16T22:23:51.984Z,2.10
2018-03-16T22:26:20.244Z,1.90
2018-03-16T22:28:47.723Z,1.90
2018-03-16T22:31:15.225Z,1.90
2018-03-16T22:33:42.708Z,1.80
2018-03-16T22:36:10.199Z,1.80
2018-03-16T22:38:37.672Z,1.90
2018-03-16T22:41:05.229Z,1.80
2018-03-16T22:43:32.703Z,1.70
2018-03-16T22:46:00.191Z,1.80
2018-03-16T22:48:27.688Z,1.70
2018-03-16T22:50:55.164Z,1.70
2018-03-16T22:53:22.664Z,1.60
2018-03-16T22:55:50.148Z,1.60
2018-03-16T22:58:17.644Z,1.60
2018-03-16T23:00:45.136Z,1.60
2018-03-16T23:03:13.396Z,1.60
2018-03-16T23:05:40.892Z,1.50
2018-03-16T23:08:08.392Z,1.60
2018-03-16T23:10:35.921Z,1.50
2018-03-16T23:13:03.400Z,1.50
2018-03-16T23:15:30.899Z,1.50
2018-03-16T23:17:59.144Z,1.40
2018-03-16T23:20:26.627Z,1.40
2018-03-16T23:22:54.903Z,1.40
2018-03-16T23:25:23.150Z,1.40
2018-03-16T23:27:50.661Z,1.40
2018-03-16T23:30:18.145Z,1.40
2018-03-16T23:32:45.643Z,1.40
2018-03-16T23:35:13.120Z,1.50
2018-03-16T23:37:40.599Z,1.40
2018-03-16T23:40:08.097Z,1.40
2018-03-16T23:42:35.575Z,1.40
2018-03-16T23:45:03.840Z,1.40
2018-03-16T23:47:32.094Z,1.40
2018-03-16T23:49:59.892Z,1.40
2018-03-16T23:52:27.367Z,1.40
2018-03-16T23:54:54.851Z,1.30
2018-03-16T23:57:22.348Z,1.30
2018-03-16T23:59:49.843Z,1.40
